Time;durP1;ratioP1;P1;durP2;ratioP2;P2;SDS_P1;SDS_P2;PMS_P1;PMS_P2;Temp;Humidity;BMP_temperature;BMP_pressure;BME280_temperature;BME280_humidity;BME280_pressure;Samples;Min_cycle;Max_cycle;Signal;HPM_P1;HPM_P2
2024/03/05 00:01:07;;;;;;;85.88;29.20;;;7.80;99.90;;;;;;5089342;27;20044;-67
2024/03/05 00:03:32;;;;;;;71.43;26.25;;;7.90;99.90;;;;;;5106066;27;20044;-67
2024/03/05 00:05:58;;;;;;;75.72;28.02;;;7.80;99.90;;;;;;5105498;27;20075;-67
2024/03/05 00:08:24;;;;;;;101.63;29.52;;;7.90;99.90;;;;;;5105845;27;20058;-67
2024/03/05 00:10:49;;;;;;;116.03;30.27;;;7.90;99.90;;;;;;5102620;27;20032;-67
2024/03/05 00:13:15;;;;;;;97.60;30.35;;;7.90;99.90;;;;;;5139419;27;20048;-67
2024/03/05 00:15:41;;;;;;;102.43;30.15;;;7.80;99.90;;;;;;5105891;27;20631;-67
2024/03/05 00:18:07;;;;;;;107.80;31.77;;;7.90;99.90;;;;;;5107006;27;20031;-67
2024/03/05 00:20:33;;;;;;;117.35;31.85;;;7.80;99.90;;;;;;5106164;27;20032;-67
2024/03/05 00:22:58;;;;;;;133.93;31.60;;;7.80;99.90;;;;;;5136333;27;20059;-67
2024/03/05 00:25:25;;;;;;;141.98;32.40;;;7.80;99.90;;;;;;5105534;27;20122;-67
2024/03/05 00:27:51;;;;;;;126.15;30.85;;;7.80;99.90;;;;;;5105858;27;20721;-67
2024/03/05 00:30:18;;;;;;;97.32;30.65;;;7.80;99.90;;;;;;5106603;27;20071;-67
2024/03/05 00:32:45;;;;;;;68.22;28.08;;;7.70;99.90;;;;;;5108658;27;20058;-67
2024/03/05 00:35:11;;;;;;;74.10;27.48;;;7.70;99.90;;;;;;5138913;27;20048;-67
2024/03/05 00:37:37;;;;;;;84.50;29.30;;;7.80;99.90;;;;;;5138696;27;20039;-67
2024/03/05 00:40:08;;;;;;;102.57;30.88;;;7.80;99.90;;;;;;5102845;27;20447;-67
2024/03/05 00:42:37;;;;;;;97.68;31.10;;;7.70;99.90;;;;;;5106694;27;20036;-67
2024/03/05 00:45:07;;;;;;;105.03;31.23;;;7.70;99.90;;;;;;5142465;27;20034;-67
2024/03/05 00:47:33;;;;;;;148.93;32.20;;;7.70;99.90;;;;;;5108661;27;20075;-67
2024/03/05 00:50:00;;;;;;;100.43;30.60;;;7.70;99.90;;;;;;5107149;27;20077;-67
2024/03/05 00:52:25;;;;;;;96.35;31.55;;;7.70;99.90;;;;;;5133878;27;20043;-67
2024/03/05 00:54:51;;;;;;;97.68;32.67;;;7.60;99.90;;;;;;5104697;27;20039;-67
2024/03/05 00:57:17;;;;;;;94.43;31.20;;;7.70;99.90;;;;;;5138326;27;20032;-67
2024/03/05 00:59:43;;;;;;;91.80;32.10;;;7.70;99.90;;;;;;5098459;27;20041;-67
2024/03/05 01:02:09;;;;;;;136.45;34.25;;;7.70;99.90;;;;;;5135395;27;20453;-67
2024/03/05 01:04:35;;;;;;;140.57;34.72;;;7.70;99.90;;;;;;5104128;27;20043;-67
2024/03/05 01:07:01;;;;;;;114.63;33.38;;;7.70;99.90;;;;;;5136898;27;20119;-67
2024/03/05 01:09:27;;;;;;;142.73;33.85;;;7.70;99.90;;;;;;5135797;27;20463;-67
2024/03/05 01:11:53;;;;;;;136.05;33.58;;;7.80;99.90;;;;;;5140658;27;20043;-67
2024/03/05 01:14:20;;;;;;;137.25;33.95;;;7.70;99.90;;;;;;5103698;27;20079;-68
2024/03/05 01:16:46;;;;;;;203.30;36.28;;;7.70;99.90;;;;;;5134702;27;20042;-67
2024/03/05 01:19:14;;;;;;;129.80;34.60;;;7.70;99.90;;;;;;5104885;27;20050;-67
2024/03/05 01:21:41;;;;;;;115.00;32.97;;;7.80;99.90;;;;;;5109784;27;20114;-67
2024/03/05 01:24:09;;;;;;;120.05;34.60;;;7.80;99.90;;;;;;5109365;27;20140;-67
2024/03/05 01:26:37;;;;;;;119.10;34.53;;;7.80;99.90;;;;;;5107681;27;20077;-67
2024/03/05 01:29:05;;;;;;;127.00;33.47;;;7.80;99.90;;;;;;5105289;27;20064;-67
2024/03/05 01:31:34;;;;;;;144.05;34.42;;;7.80;99.90;;;;;;5140739;27;20489;-67
2024/03/05 01:34:00;;;;;;;111.45;33.90;;;7.80;99.90;;;;;;5109754;27;20095;-67
2024/03/05 01:36:26;;;;;;;113.47;32.95;;;7.80;99.90;;;;;;5110591;27;20044;-67
2024/03/05 01:38:52;;;;;;;120.40;32.70;;;7.80;99.90;;;;;;5110431;28;20031;-67
2024/03/05 01:41:18;;;;;;;100.90;32.63;;;7.70;99.90;;;;;;5110748;28;20084;-67
2024/03/05 01:43:44;;;;;;;118.75;35.22;;;7.80;99.90;;;;;;5113710;28;20039;-67
2024/03/05 01:46:13;;;;;;;124.43;35.90;;;7.80;99.90;;;;;;5113867;28;20058;-67
2024/03/05 01:48:41;;;;;;;101.30;35.15;;;7.80;99.90;;;;;;5137360;27;20054;-67
2024/03/05 01:51:07;;;;;;;112.97;33.63;;;7.80;99.90;;;;;;5108917;28;20039;-67
2024/03/05 01:53:33;;;;;;;109.65;32.38;;;7.80;99.90;;;;;;5105938;28;20559;-67
2024/03/05 01:55:59;;;;;;;103.20;32.05;;;7.80;99.90;;;;;;5137005;27;20044;-67
2024/03/05 01:58:25;;;;;;;96.10;31.77;;;7.80;99.90;;;;;;5105137;28;20043;-67
2024/03/05 02:00:51;;;;;;;175.70;38.50;;;7.80;99.90;;;;;;5098196;28;20127;-67
2024/03/05 02:03:17;;;;;;;133.43;34.60;;;7.80;99.90;;;;;;5103149;28;20039;-67
2024/03/05 02:05:44;;;;;;;104.88;32.67;;;7.80;99.90;;;;;;5100776;28;20036;-67
2024/03/05 02:08:11;;;;;;;99.75;31.20;;;7.80;99.90;;;;;;5102306;28;20027;-68
2024/03/05 02:10:37;;;;;;;97.20;31.70;;;7.80;99.90;;;;;;5104276;28;20043;-68
2024/03/05 02:13:03;;;;;;;101.40;33.90;;;7.80;99.90;;;;;;5104642;28;20044;-68
2024/03/05 02:15:29;;;;;;;98.93;31.98;;;7.80;99.90;;;;;;5135507;27;20473;-67
2024/03/05 02:17:55;;;;;;;96.78;32.42;;;7.80;99.90;;;;;;5138608;27;20039;-67
2024/03/05 02:20:21;;;;;;;93.20;31.63;;;7.80;99.90;;;;;;5102016;28;20036;-68
2024/03/05 02:22:46;;;;;;;90.75;34.30;;;7.80;99.90;;;;;;5102686;28;20040;-68
2024/03/05 02:25:12;;;;;;;80.68;31.52;;;7.90;99.90;;;;;;5103568;28;20075;-68
2024/03/05 02:27:40;;;;;;;86.43;31.25;;;7.80;99.90;;;;;;5133884;27;20130;-68
2024/03/05 02:30:13;;;;;;;78.03;28.80;;;7.80;99.90;;;;;;5104185;28;21268;-68
2024/03/05 02:32:42;;;;;;;95.43;31.23;;;7.80;99.90;;;;;;5102706;28;20046;-67
2024/03/05 02:35:09;;;;;;;86.15;31.05;;;7.80;99.90;;;;;;5104501;28;20063;-67
2024/03/05 02:37:38;;;;;;;97.13;31.45;;;7.80;99.90;;;;;;5104296;28;20032;-68
2024/03/05 02:40:10;;;;;;;93.00;31.80;;;7.80;99.90;;;;;;5107458;27;20054;-68
2024/03/05 02:42:36;;;;;;;90.72;31.30;;;7.90;99.90;;;;;;5109707;27;20059;-68
2024/03/05 02:45:07;;;;;;;88.78;31.00;;;7.90;99.90;;;;;;5109629;27;20032;-68
2024/03/05 02:47:36;;;;;;;95.15;31.88;;;7.90;99.90;;;;;;5107933;27;20039;-67
2024/03/05 02:50:03;;;;;;;89.95;34.08;;;7.90;99.90;;;;;;5135190;27;20051;-68
2024/03/05 02:52:30;;;;;;;79.65;30.98;;;7.90;99.90;;;;;;5105689;27;20051;-68
2024/03/05 02:54:57;;;;;;;88.25;31.90;;;7.90;99.90;;;;;;5105075;27;20047;-67
2024/03/05 02:57:24;;;;;;;76.80;29.92;;;7.90;99.90;;;;;;5091614;27;20044;-67
2024/03/05 02:59:51;;;;;;;81.55;31.27;;;7.80;99.90;;;;;;5134044;27;20501;-67
2024/03/05 03:02:17;;;;;;;75.82;29.27;;;7.80;99.90;;;;;;5105167;27;20554;-67
2024/03/05 03:04:42;;;;;;;77.57;33.10;;;7.90;99.90;;;;;;5096864;27;20040;-67
2024/03/05 03:07:08;;;;;;;88.10;35.53;;;7.90;99.90;;;;;;5107905;27;20051;-68
2024/03/05 03:09:34;;;;;;;88.88;34.78;;;7.90;99.90;;;;;;5104420;27;20039;-67
2024/03/05 03:11:59;;;;;;;79.50;30.00;;;7.80;99.90;;;;;;5109376;27;20036;-67
2024/03/05 03:14:25;;;;;;;75.60;29.90;;;7.90;99.90;;;;;;5102904;27;20036;-67
2024/03/05 03:16:51;;;;;;;69.30;29.00;;;7.90;99.90;;;;;;5104584;27;20073;-67
2024/03/05 03:19:17;;;;;;;80.43;29.90;;;7.90;99.90;;;;;;5089248;28;20039;-67
2024/03/05 03:21:44;;;;;;;79.68;31.45;;;7.90;99.90;;;;;;5110204;27;20036;-67
2024/03/05 03:24:13;;;;;;;77.10;29.88;;;7.90;99.90;;;;;;5107267;27;20119;-67
2024/03/05 03:26:39;;;;;;;86.30;31.45;;;7.90;99.90;;;;;;5136365;27;20059;-67
2024/03/05 03:29:11;;;;;;;79.45;30.42;;;7.90;99.90;;;;;;5109299;27;20039;-67
2024/03/05 03:31:45;;;;;;;76.28;29.67;;;7.90;99.90;;;;;;5109286;27;20125;-67
2024/03/05 03:34:12;;;;;;;76.90;29.83;;;7.90;99.90;;;;;;5104653;27;20076;-67
2024/03/05 03:36:37;;;;;;;76.28;29.83;;;7.90;99.90;;;;;;5123145;27;20054;-67
2024/03/05 03:39:03;;;;;;;71.25;30.83;;;7.90;99.90;;;;;;5106285;27;20032;-67
2024/03/05 03:41:29;;;;;;;72.47;28.75;;;7.90;99.90;;;;;;5105968;27;20081;-67
2024/03/05 03:43:55;;;;;;;69.68;29.40;;;7.90;99.90;;;;;;5106509;27;20138;-67
2024/03/05 03:46:20;;;;;;;67.40;26.35;;;8.00;99.90;;;;;;5136237;27;20078;-67
2024/03/05 03:48:46;;;;;;;68.20;29.45;;;7.90;99.90;;;;;;5137069;27;20438;-68
2024/03/05 03:51:15;;;;;;;68.43;28.70;;;7.90;99.90;;;;;;5110541;27;20042;-67
2024/03/05 03:53:43;;;;;;;65.70;26.55;;;8.00;99.90;;;;;;5112177;27;20035;-68
2024/03/05 03:56:09;;;;;;;66.05;28.42;;;7.90;99.90;;;;;;5107566;27;20469;-68
2024/03/05 03:58:35;;;;;;;76.65;29.00;;;8.00;99.90;;;;;;5104685;27;20035;-68
2024/03/05 04:01:02;;;;;;;78.35;29.23;;;8.00;99.90;;;;;;5105123;28;20031;-68
2024/03/05 04:03:31;;;;;;;67.75;28.30;;;7.90;99.90;;;;;;5138756;27;20844;-68
2024/03/05 04:05:56;;;;;;;67.55;28.40;;;7.90;99.90;;;;;;5109074;27;20028;-68
2024/03/05 04:08:22;;;;;;;75.00;29.00;;;8.00;99.90;;;;;;5110999;27;20466;-67
2024/03/05 04:10:48;;;;;;;74.53;30.95;;;8.00;99.90;;;;;;5102457;27;20502;-67
2024/03/05 04:13:14;;;;;;;73.90;30.33;;;7.90;99.90;;;;;;5106109;27;20047;-68
2024/03/05 04:15:39;;;;;;;79.20;31.23;;;7.90;99.90;;;;;;5105889;27;20051;-68
2024/03/05 04:18:05;;;;;;;80.10;30.90;;;7.90;99.90;;;;;;5104037;28;20164;-67
2024/03/05 04:20:31;;;;;;;71.97;30.88;;;7.90;99.90;;;;;;5104559;27;20047;-67
2024/03/05 04:22:56;;;;;;;77.20;31.25;;;7.90;99.90;;;;;;5106845;27;20050;-67
2024/03/05 04:25:27;;;;;;;74.63;30.90;;;7.90;99.90;;;;;;5134340;27;20539;-67
2024/03/05 04:27:52;;;;;;;76.60;31.90;;;8.00;99.90;;;;;;5107807;27;20043;-67
2024/03/05 04:30:19;;;;;;;76.40;30.58;;;7.90;99.90;;;;;;5103787;27;20397;-67
2024/03/05 04:32:49;;;;;;;76.38;30.90;;;7.90;99.90;;;;;;5107467;27;20111;-67
2024/03/05 04:35:19;;;;;;;83.70;30.63;;;7.90;99.90;;;;;;5104222;27;20050;-68
2024/03/05 04:37:45;;;;;;;81.43;31.20;;;7.90;99.90;;;;;;5130934;27;20063;-68
2024/03/05 04:40:12;;;;;;;81.05;31.70;;;7.90;99.90;;;;;;5133076;27;20051;-68
2024/03/05 04:42:39;;;;;;;77.72;31.85;;;7.90;99.90;;;;;;5103284;27;20393;-67
2024/03/05 04:45:07;;;;;;;74.07;30.85;;;7.90;99.90;;;;;;5104401;27;20051;-68
2024/03/05 04:47:33;;;;;;;76.03;31.13;;;8.00;99.90;;;;;;5102736;27;20051;-68
2024/03/05 04:50:00;;;;;;;71.22;29.63;;;8.00;99.90;;;;;;5106916;27;20134;-67
2024/03/05 04:52:27;;;;;;;75.22;30.17;;;7.90;99.90;;;;;;5102103;27;20520;-67
2024/03/05 04:54:54;;;;;;;73.15;31.70;;;7.90;99.90;;;;;;5108092;27;20039;-68
2024/03/05 04:57:20;;;;;;;78.35;32.72;;;7.90;99.90;;;;;;5144245;27;20043;-68
2024/03/05 04:59:46;;;;;;;77.25;32.20;;;7.90;99.90;;;;;;5136738;27;20049;-68
2024/03/05 05:02:11;;;;;;;76.15;30.40;;;7.90;99.90;;;;;;5103232;27;20027;-68
2024/03/05 05:04:37;;;;;;;67.22;29.30;;;7.90;99.90;;;;;;5137182;27;20088;-67
2024/03/05 05:07:09;;;;;;;72.93;30.95;;;7.90;99.90;;;;;;5141016;27;20097;-67
2024/03/05 05:09:40;;;;;;;77.95;30.60;;;7.90;99.90;;;;;;5104521;27;20180;-67
2024/03/05 05:12:06;;;;;;;79.60;31.38;;;7.90;99.90;;;;;;5105427;27;20031;-68
2024/03/05 05:14:32;;;;;;;84.63;32.85;;;8.30;99.90;;;;;;5102285;27;20040;-67
2024/03/05 05:17:01;;;;;;;74.22;30.88;;;7.90;99.90;;;;;;5101861;27;20044;-67
2024/03/05 05:19:26;;;;;;;72.85;29.92;;;7.80;99.90;;;;;;5102335;27;20087;-67
2024/03/05 05:21:52;;;;;;;70.28;30.15;;;7.80;99.90;;;;;;5099165;28;20444;-68
2024/03/05 05:24:18;;;;;;;58.13;27.23;;;7.80;99.90;;;;;;5134716;27;20196;-67
2024/03/05 05:26:44;;;;;;;54.60;24.38;;;7.80;99.90;;;;;;5097641;28;21804;-67
2024/03/05 05:29:10;;;;;;;54.20;22.92;;;7.70;99.90;;;;;;5100623;28;20048;-67
2024/03/05 05:31:36;;;;;;;53.03;23.15;;;7.70;99.90;;;;;;5104588;28;20035;-67
2024/03/05 05:34:03;;;;;;;62.35;25.58;;;7.50;99.90;;;;;;5099461;28;20485;-68
2024/03/05 05:36:29;;;;;;;124.20;26.67;;;7.50;99.90;;;;;;5106489;28;20034;-67
2024/03/05 05:38:56;;;;;;;58.25;24.50;;;7.30;99.90;;;;;;5099391;28;20039;-67
2024/03/05 05:41:22;;;;;;;56.25;23.52;;;7.30;99.90;;;;;;5133019;27;20040;-67
2024/03/05 05:43:48;;;;;;;144.00;20.92;;;7.20;99.90;;;;;;5096272;28;20098;-67
2024/03/05 05:46:15;;;;;;;233.45;21.42;;;7.10;99.90;;;;;;5100357;28;20054;-67
2024/03/05 05:48:48;;;;;;;216.57;20.25;;;7.10;99.90;;;;;;5103258;28;20085;-67
2024/03/05 05:51:15;;;;;;;115.88;17.90;;;7.00;99.90;;;;;;5104056;28;20032;-67
2024/03/05 05:53:40;;;;;;;35.85;15.43;;;6.90;99.90;;;;;;5106225;28;20071;-67
2024/03/05 05:56:06;;;;;;;28.67;14.65;;;6.80;99.90;;;;;;5103269;28;20112;-67
2024/03/05 05:58:35;;;;;;;31.20;14.98;;;6.80;99.90;;;;;;5086460;28;20799;-67
2024/03/05 06:01:05;;;;;;;182.10;19.63;;;6.70;99.90;;;;;;5101038;28;20122;-67
2024/03/05 06:03:36;;;;;;;115.45;20.17;;;6.70;99.90;;;;;;5100643;28;20032;-67
2024/03/05 06:06:03;;;;;;;128.93;19.45;;;6.70;99.90;;;;;;5102710;28;20039;-67
2024/03/05 06:08:30;;;;;;;241.35;23.73;;;6.60;99.90;;;;;;5102986;28;20050;-67
2024/03/05 06:10:57;;;;;;;121.25;24.08;;;6.60;99.90;;;;;;5100157;28;20036;-67
2024/03/05 06:13:24;;;;;;;171.13;21.25;;;6.50;99.90;;;;;;5105917;28;20111;-67
2024/03/05 06:15:50;;;;;;;116.65;20.77;;;6.50;99.90;;;;;;5101058;28;20472;-67
2024/03/05 06:18:16;;;;;;;93.63;22.80;;;6.50;99.90;;;;;;5140879;27;20039;-67
2024/03/05 06:20:43;;;;;;;189.40;21.48;;;6.50;99.90;;;;;;5105291;27;20055;-67
2024/03/05 06:23:11;;;;;;;246.43;23.20;;;6.50;99.90;;;;;;5100386;27;20078;-67
2024/03/05 06:25:39;;;;;;;258.02;23.25;;;6.50;99.90;;;;;;5136021;27;20093;-67
2024/03/05 06:28:07;;;;;;;223.75;23.10;;;6.40;99.90;;;;;;5100236;27;20032;-67
2024/03/05 06:30:33;;;;;;;194.90;19.52;;;6.40;99.90;;;;;;5102549;27;20040;-67
2024/03/05 06:32:59;;;;;;;48.00;19.08;;;6.50;99.90;;;;;;5134352;27;20036;-68
2024/03/05 06:35:28;;;;;;;87.18;18.35;;;6.50;99.90;;;;;;5102757;27;20039;-67
2024/03/05 06:37:57;;;;;;;61.35;17.77;;;6.60;99.90;;;;;;5096289;27;20440;-67
2024/03/05 06:40:23;;;;;;;49.53;19.13;;;6.60;99.90;;;;;;5135234;27;20055;-67
2024/03/05 06:42:52;;;;;;;58.08;18.83;;;6.70;99.90;;;;;;5100543;27;20035;-67
2024/03/05 06:45:27;;;;;;;53.85;19.50;;;6.60;99.90;;;;;;5098274;27;20074;-67
2024/03/05 06:47:57;;;;;;;80.32;20.30;;;6.70;99.90;;;;;;5096899;27;20035;-67
2024/03/05 06:50:23;;;;;;;50.58;18.88;;;6.70;99.90;;;;;;5101244;27;20039;-67
2024/03/05 06:58:22;;;;;;;168.50;20.55;;;6.70;99.90;;;;;;5132565;27;20501;-67
2024/03/05 07:00:49;;;;;;;180.30;20.20;;;6.70;99.90;;;;;;5131356;27;20056;-67
2024/03/05 07:03:15;;;;;;;304.80;28.65;;;6.70;99.90;;;;;;5099705;28;20040;-67
2024/03/05 07:05:42;;;;;;;162.60;21.73;;;6.70;99.90;;;;;;5133862;27;20047;-67
2024/03/05 07:08:08;;;;;;;159.43;22.45;;;6.70;99.90;;;;;;5133538;27;20043;-67
2024/03/05 07:10:35;;;;;;;163.27;22.27;;;6.60;99.90;;;;;;5101176;28;20028;-67
2024/03/05 07:13:01;;;;;;;271.83;27.83;;;6.70;99.90;;;;;;5121035;27;20040;-67
2024/03/05 07:15:27;;;;;;;193.15;27.02;;;6.70;99.90;;;;;;5096997;28;20123;-67
2024/03/05 07:17:52;;;;;;;133.85;26.08;;;6.70;99.90;;;;;;5099937;28;20587;-67
2024/03/05 07:20:18;;;;;;;147.48;26.02;;;6.80;99.90;;;;;;5103192;28;20110;-67
2024/03/05 07:22:46;;;;;;;177.23;26.73;;;6.80;99.90;;;;;;5099840;28;20032;-67
2024/03/05 07:25:11;;;;;;;232.75;33.58;;;6.90;99.90;;;;;;5096752;28;20123;-67
2024/03/05 07:27:39;;;;;;;173.65;30.35;;;6.90;99.90;;;;;;5132556;27;20122;-67
2024/03/05 07:30:10;;;;;;;109.63;27.77;;;7.00;99.90;;;;;;5133283;27;20101;-67
2024/03/05 07:32:35;;;;;;;92.45;27.00;;;7.00;99.90;;;;;;5103803;28;20053;-67
2024/03/05 07:35:01;;;;;;;135.05;28.23;;;7.00;99.90;;;;;;5132841;27;20126;-67
2024/03/05 07:37:27;;;;;;;121.50;29.00;;;7.10;99.90;;;;;;5098273;28;20723;-67
2024/03/05 07:39:53;;;;;;;130.30;31.10;;;7.10;99.90;;;;;;5101008;28;20122;-67
2024/03/05 07:42:18;;;;;;;121.05;31.63;;;7.20;99.90;;;;;;5102560;28;20027;-67
2024/03/05 07:44:44;;;;;;;111.43;28.70;;;7.30;99.90;;;;;;5098551;27;20402;-67
2024/03/05 07:47:10;;;;;;;131.20;30.67;;;7.20;99.90;;;;;;5102672;28;20075;-67
2024/03/05 07:49:35;;;;;;;74.47;29.98;;;7.30;99.90;;;;;;5098433;28;20032;-67
2024/03/05 07:52:01;;;;;;;67.43;31.23;;;7.30;99.90;;;;;;5099185;28;20063;-67
2024/03/05 07:54:27;;;;;;;108.45;33.80;;;7.40;99.90;;;;;;5097482;28;20385;-67
2024/03/05 07:56:53;;;;;;;87.82;33.50;;;7.40;99.90;;;;;;5103611;27;20103;-67
2024/03/05 07:59:18;;;;;;;92.40;36.75;;;7.40;99.90;;;;;;5131184;27;20118;-67
2024/03/05 08:01:45;;;;;;;106.28;39.45;;;8.00;99.90;;;;;;5102700;27;20027;-67
2024/03/05 08:04:11;;;;;;;120.20;42.45;;;7.60;99.90;;;;;;5103736;28;20047;-67
2024/03/05 08:06:37;;;;;;;114.38;41.03;;;7.60;99.90;;;;;;5100631;28;20035;-67
2024/03/05 08:09:03;;;;;;;122.45;42.58;;;7.70;99.90;;;;;;5129583;27;20122;-67
2024/03/05 08:11:29;;;;;;;123.55;43.67;;;7.70;99.90;;;;;;5098536;28;20042;-67
2024/03/05 08:13:55;;;;;;;132.63;44.63;;;7.80;99.90;;;;;;5096410;28;20054;-67
2024/03/05 08:16:20;;;;;;;125.75;44.40;;;7.80;99.90;;;;;;5134490;27;20032;-67
2024/03/05 08:18:46;;;;;;;126.20;46.65;;;7.90;99.90;;;;;;5100141;28;20071;-67
2024/03/05 08:21:13;;;;;;;124.53;45.25;;;7.90;99.90;;;;;;5099635;27;21024;-67
2024/03/05 08:23:39;;;;;;;120.88;45.38;;;7.90;99.90;;;;;;5131152;27;20072;-68
2024/03/05 08:26:05;;;;;;;120.50;48.30;;;7.90;99.90;;;;;;5102833;28;20039;-67
2024/03/05 08:28:30;;;;;;;130.32;47.28;;;7.90;99.90;;;;;;5099299;28;20043;-67
2024/03/05 08:30:56;;;;;;;118.30;46.67;;;8.00;99.90;;;;;;5102091;28;20027;-67
2024/03/05 08:33:23;;;;;;;118.35;46.05;;;8.00;99.90;;;;;;5100764;28;20116;-67
2024/03/05 08:35:49;;;;;;;120.78;46.60;;;8.10;99.90;;;;;;5098366;28;20489;-67
2024/03/05 08:38:14;;;;;;;118.18;47.97;;;8.00;99.90;;;;;;5107200;27;20050;-67
2024/03/05 08:40:40;;;;;;;119.93;49.55;;;8.00;99.90;;;;;;5078660;28;20036;-67
2024/03/05 08:43:09;;;;;;;115.45;49.20;;;8.10;99.90;;;;;;5130426;27;20040;-67
2024/03/05 08:45:36;;;;;;;118.85;48.75;;;8.10;99.90;;;;;;5098339;27;20055;-67
2024/03/05 08:48:02;;;;;;;108.25;46.03;;;8.10;99.90;;;;;;5127761;27;20129;-67
2024/03/05 08:50:29;;;;;;;118.07;47.65;;;8.20;99.90;;;;;;5100145;28;20085;-67
2024/03/05 08:52:55;;;;;;;115.90;48.33;;;8.20;99.90;;;;;;5128654;27;20508;-67
2024/03/05 08:55:21;;;;;;;107.72;45.75;;;8.20;99.90;;;;;;5100357;28;20036;-67
2024/03/05 08:57:46;;;;;;;110.18;46.55;;;8.20;99.90;;;;;;5094387;28;20047;-67
2024/03/05 09:00:15;;;;;;;106.30;47.55;;;8.30;99.90;;;;;;5098816;28;20482;-67
2024/03/05 09:02:42;;;;;;;105.35;47.58;;;8.20;99.90;;;;;;5100992;28;20532;-67
2024/03/05 09:05:09;;;;;;;102.05;47.05;;;8.30;99.90;;;;;;5133013;27;20048;-67
2024/03/05 09:07:39;;;;;;;104.00;45.45;;;8.30;99.90;;;;;;5099903;28;20054;-67
2024/03/05 09:10:09;;;;;;;99.82;47.22;;;8.30;99.90;;;;;;5097009;28;20042;-67
2024/03/05 09:12:35;;;;;;;101.60;47.03;;;8.40;99.90;;;;;;5103799;28;20081;-67
2024/03/05 09:15:00;;;;;;;99.53;46.90;;;8.40;99.90;;;;;;5100574;27;20048;-67
2024/03/05 09:17:26;;;;;;;104.18;47.90;;;8.40;99.90;;;;;;5101952;28;20388;-67
2024/03/05 09:19:52;;;;;;;102.60;48.55;;;8.40;99.90;;;;;;5083965;27;20526;-67
2024/03/05 09:22:19;;;;;;;107.55;49.78;;;8.50;99.90;;;;;;5080849;27;20043;-67
2024/03/05 09:24:45;;;;;;;112.15;49.28;;;8.50;99.90;;;;;;5116339;27;20044;-67
2024/03/05 09:27:11;;;;;;;101.35;47.95;;;8.50;99.90;;;;;;5097046;28;20040;-67
2024/03/05 09:29:37;;;;;;;103.25;47.65;;;8.50;99.90;;;;;;5098770;28;20046;-67
2024/03/05 09:32:03;;;;;;;101.78;47.53;;;8.50;99.90;;;;;;5101311;27;20628;-67
2024/03/05 09:34:29;;;;;;;110.15;47.40;;;8.50;99.90;;;;;;5098203;28;20040;-67
2024/03/05 09:36:56;;;;;;;108.93;49.58;;;8.50;99.90;;;;;;5129072;27;20035;-67
2024/03/05 09:39:22;;;;;;;102.03;47.40;;;8.50;99.90;;;;;;5098957;28;20531;-67
2024/03/05 09:41:48;;;;;;;106.40;47.83;;;8.50;99.90;;;;;;5102094;28;20031;-67
2024/03/05 09:44:15;;;;;;;104.50;46.63;;;8.40;99.90;;;;;;5130539;27;20044;-67
2024/03/05 09:46:45;;;;;;;112.10;49.85;;;8.40;99.90;;;;;;5098895;28;20050;-67
2024/03/05 09:49:13;;;;;;;107.53;47.40;;;8.40;99.90;;;;;;5130237;27;20048;-67
2024/03/05 09:51:39;;;;;;;104.57;46.83;;;8.40;99.90;;;;;;5103779;28;20067;-67
2024/03/05 09:54:12;;;;;;;105.90;54.25;;;8.40;99.90;;;;;;5116558;27;20156;-67
2024/03/05 09:56:45;;;;;;;95.53;51.17;;;8.40;99.90;;;;;;5103991;28;20122;-67
2024/03/05 09:59:16;;;;;;;97.75;51.92;;;8.40;99.90;;;;;;5135408;27;20140;-67
2024/03/05 10:01:47;;;;;;;100.93;50.92;;;8.30;99.90;;;;;;5104039;28;20044;-67
2024/03/05 10:04:17;;;;;;;99.13;47.67;;;8.40;99.90;;;;;;5105351;27;20051;-67
2024/03/05 10:06:46;;;;;;;99.63;47.10;;;8.40;99.90;;;;;;5102350;27;20143;-67
2024/03/05 10:09:13;;;;;;;103.35;45.53;;;8.50;99.90;;;;;;5108261;28;20069;-67
2024/03/05 10:11:40;;;;;;;94.78;47.58;;;8.50;99.90;;;;;;5102304;27;20036;-67
2024/03/05 10:14:07;;;;;;;90.03;46.53;;;8.50;99.90;;;;;;5106064;27;20136;-67
2024/03/05 10:16:43;;;;;;;89.45;46.50;;;8.50;99.90;;;;;;5135326;27;20457;-67
2024/03/05 10:19:16;;;;;;;84.38;47.10;;;8.60;99.90;;;;;;5102849;28;20050;-67
2024/03/05 10:21:42;;;;;;;76.70;47.38;;;8.50;99.90;;;;;;5101488;27;20163;-67
2024/03/05 10:24:09;;;;;;;76.50;47.30;;;8.50;99.90;;;;;;5132768;27;20044;-67
2024/03/05 10:26:36;;;;;;;77.63;47.95;;;8.50;99.90;;;;;;5134507;27;20036;-67
2024/03/05 10:29:10;;;;;;;84.20;49.03;;;8.50;99.90;;;;;;5102275;28;20048;-67
2024/03/05 10:31:42;;;;;;;77.38;47.70;;;8.40;99.90;;;;;;5138312;27;20075;-67
2024/03/05 10:34:09;;;;;;;77.43;49.20;;;8.40;99.90;;;;;;5106860;27;20027;-67
2024/03/05 10:36:40;;;;;;;78.47;47.30;;;8.40;99.90;;;;;;5104576;27;20032;-67
2024/03/05 10:39:06;;;;;;;76.05;45.40;;;8.40;99.90;;;;;;5105627;28;20043;-67
2024/03/05 10:41:34;;;;;;;75.38;46.25;;;8.50;99.90;;;;;;5138003;27;20042;-67
2024/03/05 10:44:01;;;;;;;75.75;45.10;;;8.30;99.90;;;;;;5133651;27;20108;-67
2024/03/05 10:46:30;;;;;;;74.80;44.58;;;8.30;99.90;;;;;;5101422;28;20393;-67
2024/03/05 10:48:58;;;;;;;74.10;42.28;;;8.30;99.90;;;;;;5125751;27;20119;-67
2024/03/05 10:51:28;;;;;;;82.35;47.40;;;8.20;99.90;;;;;;5101471;28;20042;-67
2024/03/05 10:53:59;;;;;;;73.20;43.53;;;8.30;99.90;;;;;;5137838;27;20048;-67
2024/03/05 10:56:25;;;;;;;71.25;42.53;;;8.30;99.90;;;;;;5135594;27;20043;-68
2024/03/05 11:01:37;;;;;;;77.18;43.30;;;8.20;99.90;;;;;;5133523;27;20078;-67
2024/03/05 11:04:18;;;;;;;73.47;42.00;;;8.30;99.90;;;;;;5101605;28;20593;-67
2024/03/05 11:06:47;;;;;;;69.57;40.85;;;8.30;99.90;;;;;;5102087;27;20039;-67
2024/03/05 11:09:21;;;;;;;78.18;42.67;;;8.30;99.90;;;;;;5104405;27;20118;-67
2024/03/05 11:12:10;;;;;;;72.88;40.95;;;8.30;99.90;;;;;;5134716;27;20040;-67
2024/03/05 11:14:36;;;;;;;74.18;40.30;;;8.30;99.90;;;;;;5089759;28;20088;-67
2024/03/05 11:17:10;;;;;;;73.30;42.10;;;8.40;99.90;;;;;;5135206;27;20082;-67
2024/03/05 11:19:42;;;;;;;69.38;42.67;;;8.40;99.90;;;;;;5100495;28;20058;-67
2024/03/05 11:22:26;;;;;;;76.57;43.13;;;8.50;99.90;;;;;;5101688;27;20377;-67
2024/03/05 11:25:02;;;;;;;77.22;42.65;;;8.40;99.90;;;;;;5103060;28;20123;-67
2024/03/05 11:27:36;;;;;;;70.80;39.75;;;8.50;99.90;;;;;;5102651;27;20479;-67
2024/03/05 11:30:26;;;;;;;73.93;41.90;;;8.50;99.90;;;;;;5101258;28;20587;-67
2024/03/05 11:32:52;;;;;;;69.45;38.83;;;8.50;99.90;;;;;;5098130;27;20056;-67
2024/03/05 11:35:21;;;;;;;74.03;40.88;;;8.90;99.90;;;;;;5134648;27;20048;-67
2024/03/05 11:37:55;;;;;;;76.65;41.47;;;8.60;99.90;;;;;;5100002;28;20040;-67
2024/03/05 11:40:32;;;;;;;68.00;40.90;;;8.60;99.90;;;;;;5104093;27;20036;-67
2024/03/05 11:42:58;;;;;;;75.07;41.28;;;8.60;99.90;;;;;;5101513;27;20108;-67
2024/03/05 11:45:59;;;;;;;77.75;45.25;;;8.60;99.90;;;;;;5103421;28;20043;-67
2024/03/05 11:48:24;;;;;;;82.32;44.85;;;8.60;99.90;;;;;;5040978;28;20498;-67
2024/03/05 11:50:54;;;;;;;82.75;43.53;;;8.50;99.90;;;;;;5083571;28;20051;-67
2024/03/05 11:53:20;;;;;;;83.32;43.30;;;8.50;99.90;;;;;;5102122;28;20074;-67
2024/03/05 11:55:51;;;;;;;86.22;45.10;;;8.50;99.90;;;;;;5101603;27;20064;-67
2024/03/05 11:58:23;;;;;;;74.30;40.70;;;8.50;99.90;;;;;;5105151;28;20036;-67
2024/03/05 12:00:49;;;;;;;72.85;39.92;;;8.50;99.90;;;;;;5100405;27;20092;-67
2024/03/05 12:03:19;;;;;;;68.72;39.05;;;8.50;99.90;;;;;;5136449;27;20505;-67
2024/03/05 12:05:45;;;;;;;66.88;38.97;;;8.40;99.90;;;;;;5086166;28;20059;-67
2024/03/05 12:08:11;;;;;;;70.70;38.17;;;8.40;99.90;;;;;;5101810;27;20032;-67
2024/03/05 12:10:38;;;;;;;70.50;36.45;;;8.40;99.90;;;;;;5100856;28;20031;-67
2024/03/05 12:13:05;;;;;;;68.18;35.70;;;8.40;99.90;;;;;;5101310;27;20047;-67
2024/03/05 12:15:40;;;;;;;62.92;36.75;;;8.40;99.90;;;;;;5101255;28;20040;-67
2024/03/05 12:18:10;;;;;;;77.22;39.95;;;8.40;99.90;;;;;;5098383;27;20073;-67
2024/03/05 12:20:40;;;;;;;74.50;37.78;;;8.40;99.90;;;;;;5103041;27;20066;-67
2024/03/05 12:23:06;;;;;;;73.20;38.97;;;8.40;99.90;;;;;;5099854;28;20047;-67
2024/03/05 12:25:32;;;;;;;74.28;40.33;;;8.40;99.90;;;;;;5096388;28;20047;-67
2024/03/05 12:28:00;;;;;;;58.00;35.55;;;8.50;99.90;;;;;;5115762;27;20039;-67
2024/03/05 12:30:32;;;;;;;59.75;34.88;;;8.40;99.90;;;;;;5097904;27;20050;-67
2024/03/05 12:32:58;;;;;;;58.22;35.95;;;8.30;99.90;;;;;;5098724;27;20098;-67
2024/03/05 12:35:25;;;;;;;72.22;36.35;;;8.40;99.90;;;;;;5103338;27;20091;-67
2024/03/05 12:37:52;;;;;;;60.00;34.42;;;8.40;99.90;;;;;;5100201;28;20501;-67
2024/03/05 12:40:19;;;;;;;63.78;37.30;;;8.40;99.90;;;;;;5105200;27;20042;-67
2024/03/05 12:42:46;;;;;;;58.17;34.00;;;8.40;99.90;;;;;;5099620;28;20036;-67